Time;durP1;ratioP1;P1;durP2;ratioP2;P2;SDS_P1;SDS_P2;PMS_P1;PMS_P2;Temp;Humidity;BMP_temperature;BMP_pressure;BME280_temperature;BME280_humidity;BME280_pressure;Samples;Min_cycle;Max_cycle;Signal;HPM_P1;HPM_P2
2023/11/07 00:01:31;;;;;;;2.35;1.48;;;11.00;84.00;;;;;;5068733;28;20047;-64
2023/11/07 00:04:00;;;;;;;1.55;1.10;;;11.00;84.00;;;;;;5061702;28;20036;-64
2023/11/07 00:06:25;;;;;;;3.17;1.65;;;11.00;84.00;;;;;;5061468;28;20036;-63
2023/11/07 00:08:51;;;;;;;2.22;1.35;;;11.00;84.00;;;;;;5064282;28;20032;-64
2023/11/07 00:11:17;;;;;;;1.55;1.08;;;11.10;84.00;;;;;;5064294;28;20489;-63
2023/11/07 00:13:43;;;;;;;3.88;1.70;;;11.10;84.60;;;;;;5066324;28;20473;-64
2023/11/07 00:16:10;;;;;;;2.65;1.20;;;11.00;83.90;;;;;;5069072;28;20029;-63
2023/11/07 00:18:37;;;;;;;1.33;1.05;;;11.00;83.90;;;;;;5061967;28;20056;-63
2023/11/07 00:21:02;;;;;;;1.75;1.10;;;11.00;83.90;;;;;;5069690;28;20035;-63
2023/11/07 00:23:29;;;;;;;5.95;1.60;;;11.00;84.00;;;;;;5051645;28;20037;-64
2023/11/07 00:25:54;;;;;;;2.13;1.27;;;11.00;83.90;;;;;;5060844;28;20029;-63
2023/11/07 00:28:20;;;;;;;3.55;1.60;;;11.00;84.00;;;;;;5043950;28;20051;-63
2023/11/07 00:30:47;;;;;;;5.30;1.67;;;11.00;83.90;;;;;;5062909;28;20036;-63
2023/11/07 00:33:13;;;;;;;1.83;1.30;;;11.10;83.90;;;;;;5049690;28;20523;-63
2023/11/07 00:35:41;;;;;;;1.65;0.88;;;11.00;83.90;;;;;;5051766;28;20025;-63
2023/11/07 00:38:07;;;;;;;2.65;1.50;;;11.00;84.00;;;;;;5060884;28;20497;-63
2023/11/07 00:40:32;;;;;;;2.15;1.08;;;11.00;84.10;;;;;;5055790;28;20036;-63
2023/11/07 00:42:58;;;;;;;2.97;1.27;;;11.00;84.20;;;;;;5061325;28;20453;-63
2023/11/07 00:45:24;;;;;;;2.75;1.10;;;11.00;84.20;;;;;;5066002;28;20087;-64
2023/11/07 00:47:50;;;;;;;1.17;0.90;;;11.00;84.10;;;;;;5063176;28;20044;-63
2023/11/07 00:50:16;;;;;;;5.43;1.42;;;11.10;84.10;;;;;;5064897;28;20028;-64
2023/11/07 00:52:42;;;;;;;2.42;1.83;;;11.10;84.10;;;;;;5059231;28;20260;-63
2023/11/07 00:55:08;;;;;;;4.68;1.80;;;11.10;84.00;;;;;;5048071;28;20057;-63
2023/11/07 00:57:34;;;;;;;3.83;1.85;;;11.10;84.10;;;;;;5067142;28;20029;-63
2023/11/07 01:00:00;;;;;;;1.70;1.02;;;11.10;84.10;;;;;;5061453;28;20285;-63
2023/11/07 01:02:26;;;;;;;3.65;1.10;;;11.10;84.10;;;;;;5070030;28;20029;-63
2023/11/07 01:04:52;;;;;;;6.80;2.58;;;11.00;84.00;;;;;;5069843;28;20384;-63
2023/11/07 01:07:18;;;;;;;1.48;1.17;;;11.00;84.10;;;;;;5069994;28;20100;-63
2023/11/07 01:09:44;;;;;;;1.30;0.90;;;11.00;84.10;;;;;;5066567;28;20116;-63
2023/11/07 01:12:10;;;;;;;1.80;1.10;;;11.00;84.10;;;;;;5065959;28;20055;-64
2023/11/07 01:14:36;;;;;;;2.88;1.00;;;11.00;84.00;;;;;;5064595;28;20119;-63
2023/11/07 01:17:02;;;;;;;1.52;1.15;;;11.00;84.00;;;;;;5064353;28;20451;-63
2023/11/07 01:19:28;;;;;;;1.63;1.23;;;11.00;84.10;;;;;;5069072;28;20128;-63
2023/11/07 01:21:54;;;;;;;1.50;1.40;;;10.90;84.10;;;;;;5050355;28;20426;-63
2023/11/07 01:24:19;;;;;;;1.45;1.35;;;10.90;84.20;;;;;;5051094;28;20087;-64
2023/11/07 01:26:45;;;;;;;3.50;1.30;;;10.90;84.30;;;;;;5066595;28;20036;-64
2023/11/07 01:29:13;;;;;;;1.85;1.45;;;10.90;84.40;;;;;;5065934;28;20058;-64
2023/11/07 01:31:39;;;;;;;2.38;1.10;;;10.90;84.50;;;;;;5052823;28;20488;-64
2023/11/07 01:34:05;;;;;;;3.72;1.20;;;10.90;84.40;;;;;;5065206;28;20086;-64
2023/11/07 01:36:31;;;;;;;5.63;1.40;;;10.90;84.40;;;;;;5070925;28;20028;-64
2023/11/07 01:38:56;;;;;;;5.07;1.90;;;10.90;84.30;;;;;;5051652;28;20442;-64
2023/11/07 01:41:22;;;;;;;2.55;0.82;;;10.90;84.40;;;;;;5066569;28;20021;-64
2023/11/07 01:43:48;;;;;;;4.50;1.38;;;10.80;84.40;;;;;;5069415;28;20032;-64
2023/11/07 01:46:14;;;;;;;2.25;1.35;;;10.80;84.40;;;;;;5046103;28;20516;-64
2023/11/07 01:48:40;;;;;;;2.92;0.80;;;10.80;84.40;;;;;;5061710;28;20465;-64
2023/11/07 01:51:07;;;;;;;2.22;1.23;;;10.80;84.40;;;;;;5066247;28;20079;-64
2023/11/07 01:53:33;;;;;;;2.20;0.85;;;10.80;84.60;;;;;;5063731;28;20426;-64
2023/11/07 01:55:59;;;;;;;1.35;1.05;;;10.70;84.70;;;;;;5070206;28;20021;-63
2023/11/07 01:58:27;;;;;;;3.03;1.10;;;10.70;84.80;;;;;;5066775;28;20032;-63
2023/11/07 02:00:55;;;;;;;2.40;1.38;;;10.70;84.80;;;;;;5059228;28;20064;-64
2023/11/07 02:03:27;;;;;;;1.35;1.25;;;10.80;84.80;;;;;;5067361;28;20029;-63
2023/11/07 02:05:53;;;;;;;9.55;1.58;;;10.80;84.70;;;;;;5027932;28;20029;-63
2023/11/07 02:08:23;;;;;;;3.25;1.00;;;10.80;84.70;;;;;;5064988;28;20032;-63
2023/11/07 02:10:49;;;;;;;4.38;1.52;;;10.80;84.70;;;;;;5064992;28;20033;-63
2023/11/07 02:13:15;;;;;;;2.88;1.15;;;10.80;84.60;;;;;;5063871;28;20035;-63
2023/11/07 02:15:41;;;;;;;2.47;1.02;;;10.80;84.60;;;;;;5063742;28;20037;-64
2023/11/07 02:18:06;;;;;;;3.60;1.08;;;10.80;84.60;;;;;;5045008;28;20048;-63
2023/11/07 02:20:36;;;;;;;2.78;1.08;;;10.80;84.60;;;;;;5062859;28;20032;-63
2023/11/07 02:23:29;;;;;;;2.20;1.10;;;10.80;84.60;;;;;;5067079;28;20024;-63
2023/11/07 02:25:55;;;;;;;3.03;1.13;;;10.80;84.60;;;;;;5055110;28;20033;-64
2023/11/07 02:28:21;;;;;;;1.88;1.15;;;10.80;84.60;;;;;;5066783;28;20048;-64
2023/11/07 02:30:47;;;;;;;2.50;0.93;;;10.80;84.70;;;;;;5064381;28;20167;-64
2023/11/07 02:33:14;;;;;;;2.35;1.20;;;10.80;84.70;;;;;;5065938;28;20077;-64
2023/11/07 02:35:41;;;;;;;1.40;0.60;;;10.80;84.70;;;;;;5069690;28;20116;-63
2023/11/07 02:38:07;;;;;;;1.25;0.63;;;10.80;84.70;;;;;;5064220;28;20020;-63
2023/11/07 02:40:33;;;;;;;2.25;1.20;;;10.80;84.60;;;;;;5063489;28;20037;-64
2023/11/07 02:43:04;;;;;;;1.65;1.13;;;10.80;84.50;;;;;;5069389;28;21177;-63
2023/11/07 02:45:30;;;;;;;1.33;0.90;;;10.80;84.40;;;;;;5062331;28;20111;-64
2023/11/07 02:47:56;;;;;;;1.67;1.23;;;10.80;84.20;;;;;;5060932;28;20562;-63
2023/11/07 02:50:22;;;;;;;1.63;1.08;;;10.80;84.30;;;;;;5046841;28;20029;-63
2023/11/07 02:52:48;;;;;;;1.88;0.68;;;10.80;84.30;;;;;;5061332;28;20388;-63
2023/11/07 02:55:14;;;;;;;1.65;0.70;;;10.80;84.30;;;;;;5063851;28;20045;-63
2023/11/07 02:57:40;;;;;;;8.63;0.93;;;10.80;84.30;;;;;;5063762;28;20037;-63
2023/11/07 03:00:10;;;;;;;8.23;1.40;;;10.80;84.20;;;;;;5059440;28;20048;-64
2023/11/07 03:02:39;;;;;;;1.45;1.17;;;10.80;84.20;;;;;;5059480;28;20052;-63
2023/11/07 03:05:06;;;;;;;3.33;1.10;;;10.80;84.40;;;;;;5064026;28;20535;-63
2023/11/07 03:07:33;;;;;;;4.72;1.08;;;10.80;84.50;;;;;;5063034;28;20477;-63
2023/11/07 03:10:02;;;;;;;4.20;1.90;;;10.70;84.50;;;;;;5065526;28;20028;-63
2023/11/07 03:12:29;;;;;;;0.80;0.80;;;10.80;84.80;;;;;;5064005;28;20072;-63
2023/11/07 03:14:57;;;;;;;1.92;1.30;;;10.70;84.90;;;;;;5060978;28;20027;-64
2023/11/07 03:17:26;;;;;;;6.75;1.33;;;10.80;85.00;;;;;;5063871;28;20029;-63
2023/11/07 03:19:53;;;;;;;2.22;1.30;;;10.70;85.20;;;;;;5065097;28;20060;-63
2023/11/07 03:22:20;;;;;;;0.82;0.80;;;10.70;85.20;;;;;;5063881;28;20456;-63
2023/11/07 03:24:49;;;;;;;1.60;1.08;;;10.70;85.10;;;;;;5042787;28;20412;-63
2023/11/07 03:27:15;;;;;;;3.45;1.73;;;10.80;85.10;;;;;;5057981;28;20079;-63
2023/11/07 03:29:42;;;;;;;2.67;0.82;;;10.70;85.10;;;;;;5066730;28;20040;-63
2023/11/07 03:32:11;;;;;;;2.42;1.25;;;10.70;85.20;;;;;;5061171;28;20032;-63
2023/11/07 03:34:37;;;;;;;2.72;1.40;;;10.70;85.20;;;;;;5034561;28;20082;-63
2023/11/07 03:37:03;;;;;;;9.63;1.50;;;10.70;85.20;;;;;;5064863;28;20587;-63
2023/11/07 03:39:29;;;;;;;4.32;1.15;;;10.70;85.10;;;;;;5047254;28;20397;-63
2023/11/07 03:41:55;;;;;;;8.13;1.23;;;10.70;85.20;;;;;;5064430;28;20363;-63
2023/11/07 03:44:20;;;;;;;2.55;0.90;;;10.70;85.40;;;;;;5062703;28;20021;-63
2023/11/07 03:46:46;;;;;;;1.50;1.30;;;10.70;85.30;;;;;;5039168;28;20578;-64
2023/11/07 03:49:13;;;;;;;2.83;1.38;;;10.70;85.40;;;;;;5062834;28;20029;-64
2023/11/07 03:51:39;;;;;;;3.28;1.42;;;10.70;85.40;;;;;;5063807;28;20032;-63
2023/11/07 03:54:05;;;;;;;1.92;1.02;;;10.80;85.40;;;;;;5064982;28;20029;-64
2023/11/07 03:56:31;;;;;;;1.70;1.20;;;10.80;85.30;;;;;;5067957;28;20536;-64
2023/11/07 03:58:56;;;;;;;7.25;1.33;;;10.80;85.30;;;;;;5059247;28;20075;-63
2023/11/07 04:01:22;;;;;;;0.95;0.70;;;10.80;85.30;;;;;;5064348;28;20048;-63
2023/11/07 04:03:48;;;;;;;5.72;1.20;;;10.80;85.30;;;;;;5067386;28;20025;-63
2023/11/07 04:06:13;;;;;;;4.78;1.15;;;10.80;85.30;;;;;;5064074;28;20029;-63
2023/11/07 04:08:39;;;;;;;5.32;1.25;;;10.80;85.30;;;;;;5040129;28;20028;-63
2023/11/07 04:11:05;;;;;;;2.78;1.58;;;10.90;85.40;;;;;;5040447;28;20024;-63
2023/11/07 04:13:30;;;;;;;3.67;1.42;;;10.80;85.50;;;;;;5063273;28;20041;-63
2023/11/07 04:15:57;;;;;;;2.95;1.42;;;10.80;86.10;;;;;;5062737;28;20031;-63
2023/11/07 04:18:23;;;;;;;1.30;0.80;;;10.80;85.60;;;;;;5041315;28;20033;-63
2023/11/07 04:20:52;;;;;;;1.85;1.05;;;10.80;85.70;;;;;;5064625;28;20025;-63
2023/11/07 04:23:18;;;;;;;3.63;1.50;;;10.90;85.70;;;;;;5050465;28;20031;-63
2023/11/07 04:25:44;;;;;;;3.55;1.15;;;10.90;85.70;;;;;;5065552;28;20481;-63
2023/11/07 04:28:09;;;;;;;1.08;0.93;;;10.90;85.60;;;;;;5065382;28;20086;-63
2023/11/07 04:30:35;;;;;;;3.33;1.63;;;10.90;85.70;;;;;;5066599;28;20043;-64
2023/11/07 04:33:02;;;;;;;1.83;1.08;;;10.90;85.70;;;;;;5071499;28;20523;-64
2023/11/07 04:35:29;;;;;;;6.68;1.55;;;10.90;85.50;;;;;;5068369;28;20032;-64
2023/11/07 04:37:55;;;;;;;5.25;1.23;;;10.90;85.50;;;;;;5069845;28;20032;-65
2023/11/07 04:40:21;;;;;;;6.70;2.10;;;10.90;85.50;;;;;;5061859;28;20033;-63
2023/11/07 04:42:47;;;;;;;4.38;1.58;;;10.90;85.60;;;;;;5071080;28;20029;-64
2023/11/07 04:45:13;;;;;;;3.67;1.50;;;10.90;85.60;;;;;;5057880;28;20047;-64
2023/11/07 04:47:39;;;;;;;3.85;1.40;;;10.90;85.60;;;;;;5062534;28;20389;-64
2023/11/07 04:50:06;;;;;;;2.30;1.83;;;10.80;85.70;;;;;;5043852;28;20027;-63
2023/11/07 04:52:33;;;;;;;7.82;2.67;;;10.80;85.90;;;;;;5068267;28;20044;-63
2023/11/07 04:55:00;;;;;;;1.65;1.20;;;10.80;85.90;;;;;;5059439;28;20116;-64
2023/11/07 04:57:25;;;;;;;3.53;2.00;;;10.80;85.90;;;;;;5049890;28;20033;-65
2023/11/07 04:59:51;;;;;;;2.03;1.88;;;10.80;85.80;;;;;;5058729;28;20029;-64
2023/11/07 05:02:18;;;;;;;2.17;1.42;;;10.80;85.70;;;;;;5058759;28;20524;-64
2023/11/07 05:04:45;;;;;;;2.92;1.67;;;10.90;85.70;;;;;;5045469;28;20028;-63
2023/11/07 05:07:12;;;;;;;2.70;1.25;;;10.90;85.70;;;;;;5060754;28;20076;-63
2023/11/07 05:09:38;;;;;;;2.22;1.52;;;10.90;85.50;;;;;;5059582;28;20078;-64
2023/11/07 05:12:05;;;;;;;1.52;1.30;;;10.90;85.50;;;;;;5062989;28;20028;-64
2023/11/07 05:14:32;;;;;;;4.40;1.23;;;10.90;85.50;;;;;;5062999;28;20028;-63
2023/11/07 05:16:58;;;;;;;5.07;1.65;;;10.90;85.50;;;;;;5048153;28;20043;-63
2023/11/07 05:19:24;;;;;;;2.95;1.70;;;10.90;85.50;;;;;;5067740;28;20025;-65
2023/11/07 05:21:50;;;;;;;1.55;0.98;;;10.90;85.50;;;;;;5065552;28;20214;-64
2023/11/07 05:24:16;;;;;;;3.28;1.50;;;10.90;85.50;;;;;;5063695;28;20138;-63
2023/11/07 05:26:43;;;;;;;3.38;1.20;;;10.90;85.50;;;;;;5069973;28;20036;-64
2023/11/07 05:29:15;;;;;;;2.47;1.20;;;10.90;85.50;;;;;;5064907;28;20023;-63
2023/11/07 05:31:41;;;;;;;4.43;1.52;;;11.00;85.50;;;;;;5059027;28;20017;-63
2023/11/07 05:34:07;;;;;;;2.17;1.52;;;11.00;85.50;;;;;;5062430;28;20058;-64
2023/11/07 05:36:33;;;;;;;7.45;2.58;;;11.00;85.50;;;;;;5061866;28;20025;-64
2023/11/07 05:38:59;;;;;;;4.88;2.22;;;11.00;85.50;;;;;;5036808;28;20160;-63
2023/11/07 05:41:25;;;;;;;6.22;2.10;;;10.90;85.60;;;;;;5062208;28;20233;-63
2023/11/07 05:43:54;;;;;;;2.67;1.42;;;10.90;85.80;;;;;;5066328;28;20027;-63
2023/11/07 05:46:21;;;;;;;2.55;1.70;;;10.90;85.80;;;;;;5058956;28;20084;-63
2023/11/07 05:48:51;;;;;;;7.30;2.97;;;11.00;85.80;;;;;;5041641;28;20029;-63
2023/11/07 05:51:19;;;;;;;6.00;2.40;;;10.90;85.80;;;;;;5063005;28;20024;-64
2023/11/07 05:53:45;;;;;;;4.50;1.73;;;11.00;85.90;;;;;;5046265;28;20036;-63
2023/11/07 05:56:11;;;;;;;4.53;2.72;;;10.90;85.80;;;;;;5044391;28;20119;-64
2023/11/07 05:58:37;;;;;;;3.60;1.42;;;10.90;85.90;;;;;;5043843;28;20398;-64
2023/11/07 06:01:04;;;;;;;3.17;2.10;;;10.90;85.80;;;;;;5045618;28;20040;-65
2023/11/07 06:03:30;;;;;;;3.88;1.70;;;10.90;85.80;;;;;;5051170;28;20037;-64
2023/11/07 06:05:56;;;;;;;2.05;1.63;;;11.00;85.80;;;;;;5063073;28;20025;-65
2023/11/07 06:08:22;;;;;;;4.60;1.65;;;10.90;85.60;;;;;;5048027;28;20048;-65
2023/11/07 06:10:47;;;;;;;2.78;1.33;;;10.90;85.60;;;;;;5065409;28;20468;-64
2023/11/07 06:13:13;;;;;;;10.65;2.78;;;10.90;85.50;;;;;;5063261;28;20029;-64
2023/11/07 06:15:39;;;;;;;2.60;2.05;;;10.90;85.50;;;;;;5064908;28;20043;-64
2023/11/07 06:18:06;;;;;;;2.63;1.65;;;10.90;85.50;;;;;;5060572;28;20045;-64
2023/11/07 06:20:32;;;;;;;4.18;1.65;;;10.90;85.50;;;;;;5047627;28;20117;-65
2023/11/07 06:22:58;;;;;;;3.15;2.00;;;10.90;85.60;;;;;;5060024;28;20500;-65
2023/11/07 06:25:24;;;;;;;3.55;1.50;;;10.90;85.50;;;;;;5067297;28;20020;-65
2023/11/07 06:27:51;;;;;;;1.65;1.40;;;10.90;85.30;;;;;;5064298;28;20037;-65
2023/11/07 06:30:18;;;;;;;3.10;1.83;;;10.90;85.20;;;;;;5042480;28;20047;-64
2023/11/07 06:32:44;;;;;;;7.10;2.08;;;11.00;85.30;;;;;;5067270;28;20032;-64
2023/11/07 06:35:10;;;;;;;3.03;2.45;;;11.00;85.30;;;;;;5067859;28;20032;-64
2023/11/07 06:37:36;;;;;;;6.20;2.38;;;11.00;85.30;;;;;;5067469;28;20116;-64
2023/11/07 06:40:23;;;;;;;3.30;2.20;;;10.90;85.30;;;;;;5057307;28;20107;-64
2023/11/07 06:42:51;;;;;;;2.05;1.67;;;11.00;85.40;;;;;;5065716;28;20028;-64
2023/11/07 06:45:17;;;;;;;5.05;1.88;;;10.90;85.30;;;;;;5066788;28;20103;-64
2023/11/07 06:47:44;;;;;;;3.33;2.28;;;10.90;85.30;;;;;;5066543;28;20155;-64
2023/11/07 06:50:12;;;;;;;3.05;1.88;;;11.00;85.30;;;;;;5063107;28;20393;-65
2023/11/07 06:52:40;;;;;;;3.15;1.90;;;11.00;85.20;;;;;;5064860;28;20358;-64
2023/11/07 06:55:09;;;;;;;3.53;1.48;;;11.00;85.10;;;;;;5061098;28;20017;-64
2023/11/07 06:57:34;;;;;;;4.43;2.35;;;11.10;85.10;;;;;;5045451;28;20044;-65
2023/11/07 07:00:05;;;;;;;2.70;1.38;;;11.10;85.10;;;;;;5055980;28;20028;-64
2023/11/07 07:02:31;;;;;;;2.15;1.88;;;11.10;85.10;;;;;;5041556;28;20114;-64
2023/11/07 07:04:58;;;;;;;9.40;2.63;;;11.10;85.10;;;;;;5061403;28;20043;-64
2023/11/07 07:07:23;;;;;;;6.43;2.08;;;11.20;85.10;;;;;;5057614;28;20029;-64
2023/11/07 07:09:49;;;;;;;2.83;1.80;;;11.10;85.00;;;;;;5060351;28;20037;-65
2023/11/07 07:12:15;;;;;;;2.15;1.60;;;11.10;85.10;;;;;;5059884;28;20036;-65
2023/11/07 07:14:40;;;;;;;4.03;2.35;;;11.10;85.10;;;;;;5043711;28;20039;-65
2023/11/07 07:17:07;;;;;;;4.03;2.15;;;11.10;85.20;;;;;;5063551;28;20040;-65
2023/11/07 07:19:37;;;;;;;1.90;1.63;;;11.10;85.30;;;;;;5060955;28;20040;-65
2023/11/07 07:22:06;;;;;;;1.60;1.27;;;11.20;85.30;;;;;;5047126;28;20404;-65
2023/11/07 07:24:32;;;;;;;2.72;1.48;;;11.20;85.30;;;;;;5048849;28;20029;-64
2023/11/07 07:27:01;;;;;;;2.15;1.70;;;11.20;85.30;;;;;;5061902;28;20067;-64
2023/11/07 07:29:27;;;;;;;3.83;1.83;;;11.20;85.20;;;;;;5061637;28;20041;-64
2023/11/07 07:31:53;;;;;;;2.88;1.90;;;11.20;85.20;;;;;;5051300;28;20400;-65
2023/11/07 07:34:20;;;;;;;3.35;1.95;;;11.10;85.90;;;;;;5060954;28;20173;-65
2023/11/07 07:36:47;;;;;;;3.65;1.48;;;11.10;85.40;;;;;;5060663;28;20052;-64
2023/11/07 07:39:29;;;;;;;4.07;2.47;;;11.10;85.40;;;;;;5050947;28;20487;-65
2023/11/07 07:42:09;;;;;;;9.85;2.03;;;11.20;85.30;;;;;;5043018;28;20045;-65
2023/11/07 07:44:38;;;;;;;4.68;2.10;;;11.20;85.40;;;;;;5039263;28;20032;-64
2023/11/07 07:47:04;;;;;;;4.10;1.90;;;11.20;85.30;;;;;;5038163;28;20025;-64
2023/11/07 07:49:31;;;;;;;2.10;1.63;;;11.20;85.20;;;;;;5032584;28;20410;-64
2023/11/07 07:51:58;;;;;;;1.55;1.08;;;11.20;85.00;;;;;;5053745;28;20029;-64
2023/11/07 07:54:24;;;;;;;3.92;1.80;;;11.30;85.00;;;;;;5060580;28;20040;-65
2023/11/07 07:56:54;;;;;;;3.13;1.88;;;11.30;84.80;;;;;;5046725;28;20131;-65
2023/11/07 07:59:23;;;;;;;4.30;2.45;;;11.30;84.60;;;;;;5062192;28;20051;-64
2023/11/07 08:01:55;;;;;;;4.57;1.75;;;11.30;84.80;;;;;;5041567;28;20041;-65
2023/11/07 08:04:22;;;;;;;3.78;1.88;;;11.30;84.70;;;;;;5062246;28;20441;-64
2023/11/07 08:06:48;;;;;;;2.83;2.03;;;11.30;84.80;;;;;;5062003;28;20111;-65
2023/11/07 08:09:14;;;;;;;3.88;1.88;;;11.30;84.60;;;;;;5061068;28;20104;-64
2023/11/07 08:11:41;;;;;;;3.13;2.22;;;11.40;84.50;;;;;;5057091;28;20385;-64
2023/11/07 08:14:07;;;;;;;4.85;1.52;;;11.40;84.30;;;;;;5042830;28;20064;-65
2023/11/07 08:16:33;;;;;;;3.92;2.22;;;11.40;84.20;;;;;;5052832;28;20056;-65
2023/11/07 08:18:59;;;;;;;4.53;1.85;;;11.50;84.30;;;;;;5043586;28;20029;-65
2023/11/07 08:21:26;;;;;;;3.15;1.90;;;11.40;83.90;;;;;;5045369;28;20041;-64
2023/11/07 08:23:52;;;;;;;4.57;2.08;;;11.40;84.10;;;;;;5059408;28;20036;-65
2023/11/07 08:26:17;;;;;;;2.42;1.92;;;11.50;84.10;;;;;;5063765;28;20041;-65
2023/11/07 08:28:43;;;;;;;2.45;1.58;;;11.40;83.90;;;;;;5048409;28;20041;-65
2023/11/07 08:31:12;;;;;;;4.10;1.85;;;11.50;84.00;;;;;;5047701;28;20033;-65
2023/11/07 08:33:42;;;;;;;6.40;2.55;;;11.50;83.90;;;;;;5063329;28;20501;-65
2023/11/07 08:36:09;;;;;;;3.38;1.77;;;11.40;83.60;;;;;;5065169;28;20090;-65
2023/11/07 08:38:37;;;;;;;3.08;1.95;;;11.40;83.60;;;;;;5047799;28;20112;-64
2023/11/07 08:41:03;;;;;;;8.45;2.15;;;11.30;83.80;;;;;;5064861;28;20028;-65
2023/11/07 08:43:31;;;;;;;4.53;1.73;;;11.40;83.80;;;;;;5069729;28;20112;-65
2023/11/07 08:45:56;;;;;;;2.20;1.67;;;11.30;83.80;;;;;;5063405;28;20145;-65
2023/11/07 08:48:22;;;;;;;3.03;1.88;;;11.40;83.90;;;;;;5061098;28;20048;-65
2023/11/07 08:50:48;;;;;;;4.55;1.75;;;11.40;83.80;;;;;;5060140;28;20036;-65
2023/11/07 08:53:14;;;;;;;3.88;1.95;;;11.40;83.90;;;;;;5044559;28;20388;-64
2023/11/07 08:55:40;;;;;;;2.00;1.70;;;11.50;83.80;;;;;;5060867;28;20274;-65
2023/11/07 08:58:06;;;;;;;1.65;1.38;;;11.50;83.50;;;;;;5062759;28;20054;-65
2023/11/07 09:00:33;;;;;;;2.63;1.48;;;11.60;83.60;;;;;;5063783;28;20291;-65
2023/11/07 09:02:59;;;;;;;2.58;1.88;;;11.60;83.50;;;;;;5067259;28;20374;-65
2023/11/07 09:05:26;;;;;;;1.58;1.40;;;11.70;83.20;;;;;;5028406;28;20500;-65
2023/11/07 09:07:52;;;;;;;2.15;1.48;;;11.70;82.70;;;;;;5066749;28;20020;-65
2023/11/07 09:10:20;;;;;;;3.25;1.77;;;11.70;82.60;;;;;;5067282;28;20033;-65
2023/11/07 09:12:46;;;;;;;3.33;1.40;;;11.70;82.50;;;;;;5066470;28;20037;-65
2023/11/07 09:15:12;;;;;;;2.22;1.35;;;11.80;82.50;;;;;;5066158;28;20039;-65
2023/11/07 09:17:41;;;;;;;4.28;1.40;;;11.80;82.30;;;;;;5065151;28;20075;-65
2023/11/07 09:20:13;;;;;;;1.45;0.90;;;11.80;82.00;;;;;;5040045;28;20065;-65
2023/11/07 09:22:41;;;;;;;3.38;1.33;;;11.80;81.80;;;;;;5058753;28;20012;-65
2023/11/07 09:25:07;;;;;;;3.90;1.70;;;11.80;81.90;;;;;;5060190;28;20059;-65
2023/11/07 09:27:33;;;;;;;2.20;1.40;;;11.90;82.00;;;;;;5059585;28;20020;-65
2023/11/07 09:29:59;;;;;;;2.63;1.42;;;12.00;81.60;;;;;;5049914;28;20031;-65
2023/11/07 09:32:26;;;;;;;2.45;1.27;;;12.00;81.10;;;;;;5040569;28;20044;-65
2023/11/07 09:34:55;;;;;;;1.73;1.35;;;12.10;80.80;;;;;;5065882;28;20067;-65
2023/11/07 09:37:21;;;;;;;1.77;1.38;;;12.00;80.80;;;;;;5046177;28;20044;-64
2023/11/07 09:39:47;;;;;;;2.15;1.63;;;12.00;80.90;;;;;;5063201;28;20029;-64
2023/11/07 09:42:12;;;;;;;1.85;1.42;;;12.00;80.80;;;;;;5059021;28;20492;-65
2023/11/07 09:44:39;;;;;;;2.60;1.45;;;11.90;80.80;;;;;;5048690;28;20507;-65
2023/11/07 09:47:06;;;;;;;1.92;1.55;;;11.90;81.00;;;;;;5065767;28;20013;-65
2023/11/07 09:49:35;;;;;;;3.17;1.35;;;12.00;80.90;;;;;;5048369;28;20044;-65
2023/11/07 09:52:06;;;;;;;4.25;1.48;;;12.00;80.70;;;;;;5064196;28;20109;-65
2023/11/07 09:54:32;;;;;;;1.55;1.20;;;12.00;80.50;;;;;;5061670;28;20036;-65
2023/11/07 09:57:03;;;;;;;3.42;1.65;;;11.90;80.50;;;;;;5063253;28;20027;-64
2023/11/07 09:59:44;;;;;;;2.67;1.05;;;12.00;80.70;;;;;;5057017;28;20393;-64
2023/11/07 10:02:10;;;;;;;1.73;1.38;;;12.10;80.60;;;;;;5041149;28;20628;-64
2023/11/07 10:04:37;;;;;;;1.88;1.20;;;12.20;80.00;;;;;;5064283;28;20123;-64
2023/11/07 10:07:03;;;;;;;2.55;1.98;;;12.30;79.50;;;;;;5062986;28;20025;-64
2023/11/07 10:09:32;;;;;;;1.67;1.20;;;12.30;79.20;;;;;;5048198;28;20029;-64
2023/11/07 10:11:58;;;;;;;1.98;1.58;;;12.30;79.20;;;;;;5063734;28;20468;-64
2023/11/07 10:14:24;;;;;;;1.13;1.02;;;12.20;79.20;;;;;;5065079;28;20031;-64
2023/11/07 10:16:56;;;;;;;2.85;1.50;;;12.20;79.30;;;;;;5062809;28;20393;-64
2023/11/07 10:19:23;;;;;;;1.30;1.20;;;12.30;79.40;;;;;;5059983;28;20032;-64
2023/11/07 10:21:50;;;;;;;2.13;1.15;;;12.30;79.50;;;;;;5044205;28;20115;-64
2023/11/07 10:24:16;;;;;;;3.70;1.50;;;12.30;79.50;;;;;;5062536;28;20040;-64
2023/11/07 10:26:59;;;;;;;1.80;1.23;;;12.40;79.30;;;;;;5063909;28;20029;-64
2023/11/07 10:29:31;;;;;;;4.15;1.58;;;12.50;79.10;;;;;;5061510;28;20031;-64
2023/11/07 10:32:02;;;;;;;2.80;1.38;;;12.50;79.10;;;;;;5049520;28;20035;-64
2023/11/07 10:34:30;;;;;;;5.45;1.45;;;12.70;78.80;;;;;;5066443;28;20029;-64
2023/11/07 10:36:56;;;;;;;1.55;1.27;;;12.80;78.70;;;;;;5045568;28;20063;-64
2023/11/07 10:39:23;;;;;;;1.50;1.23;;;13.10;78.40;;;;;;5049744;28;20591;-64
2023/11/07 10:41:49;;;;;;;3.15;1.52;;;13.40;77.50;;;;;;5065868;28;20028;-64
2023/11/07 10:44:24;;;;;;;3.65;1.27;;;13.70;77.20;;;;;;5063600;28;20033;-65
2023/11/07 10:46:51;;;;;;;6.53;1.50;;;14.00;76.20;;;;;;5066230;28;20484;-64
2023/11/07 10:49:18;;;;;;;3.10;1.33;;;14.20;75.60;;;;;;5064905;28;20024;-64
2023/11/07 10:51:44;;;;;;;2.17;1.15;;;14.40;74.20;;;;;;5064067;28;20032;-64
2023/11/07 10:54:10;;;;;;;2.78;1.30;;;14.60;72.90;;;;;;5062578;28;20392;-65
2023/11/07 10:56:40;;;;;;;2.22;1.00;;;14.80;72.10;;;;;;5049495;28;20511;-64
2023/11/07 10:59:12;;;;;;;4.47;1.00;;;14.90;71.80;;;;;;5050090;28;20059;-65
2023/11/07 11:01:40;;;;;;;2.10;1.50;;;15.20;71.20;;;;;;5062950;28;20068;-65
2023/11/07 11:04:08;;;;;;;2.90;1.40;;;15.30;69.70;;;;;;5062986;28;20238;-64
2023/11/07 11:06:36;;;;;;;1.33;0.90;;;15.50;70.00;;;;;;5066669;28;20028;-65
2023/11/07 11:09:06;;;;;;;2.33;1.00;;;15.80;69.90;;;;;;5064629;28;20392;-64
2023/11/07 11:11:33;;;;;;;1.13;0.90;;;16.30;67.00;;;;;;5042442;28;20396;-64
2023/11/07 11:13:59;;;;;;;1.42;1.10;;;16.70;65.00;;;;;;5063703;28;20294;-67
2023/11/07 11:16:26;;;;;;;1.08;0.98;;;17.00;64.30;;;;;;5028041;28;20029;-64
2023/11/07 11:19:09;;;;;;;1.40;0.85;;;17.30;63.50;;;;;;5048719;28;20068;-65
2023/11/07 11:21:46;;;;;;;2.33;1.08;;;17.00;63.90;;;;;;5063954;28;20040;-64
2023/11/07 11:24:34;;;;;;;3.28;1.00;;;16.60;63.80;;;;;;5057212;28;20021;-65
2023/11/07 11:27:13;;;;;;;1.75;0.60;;;16.00;65.50;;;;;;5064686;28;20037;-65
2023/11/07 11:29:47;;;;;;;1.30;0.93;;;15.60;67.40;;;;;;5067164;28;20025;-64
2023/11/07 11:32:26;;;;;;;1.67;1.00;;;15.30;67.80;;;;;;5059914;28;20115;-64
2023/11/07 11:34:57;;;;;;;2.80;1.80;;;15.10;67.60;;;;;;5066191;28;20086;-64
2023/11/07 11:37:25;;;;;;;2.72;0.93;;;14.80;68.00;;;;;;5065142;28;20580;-64
2023/11/07 11:39:52;;;;;;;0.95;0.80;;;14.60;68.80;;;;;;5064440;28;20135;-65
2023/11/07 11:42:18;;;;;;;0.77;0.77;;;14.80;68.70;;;;;;5058523;28;20033;-64
2023/11/07 11:44:43;;;;;;;1.60;1.08;;;14.80;68.50;;;;;;5040967;28;20029;-64
2023/11/07 11:47:47;;;;;;;2.17;0.80;;;15.00;68.40;;;;;;5056561;28;20545;-64
2023/11/07 11:50:14;;;;;;;3.00;1.17;;;14.90;68.30;;;;;;5058541;28;20529;-64
2023/11/07 11:52:40;;;;;;;1.13;0.90;;;15.00;68.40;;;;;;5055670;28;20025;-64
2023/11/07 11:55:10;;;;;;;1.33;0.85;;;15.20;67.90;;;;;;5051023;28;20078;-64
2023/11/07 11:58:15;;;;;;;3.72;0.70;;;15.20;67.30;;;;;;5049155;28;20115;-64
2023/11/07 12:00:44;;;;;;;2.58;0.68;;;15.00;67.80;;;;;;5058438;28;20063;-64
2023/11/07 12:03:16;;;;;;;1.27;1.05;;;14.70;68.70;;;;;;5038326;28;20040;-65
2023/11/07 12:05:41;;;;;;;1.17;0.60;;;14.40;69.20;;;;;;5034001;28;20030;-64
2023/11/07 12:08:33;;;;;;;6.55;1.17;;;14.30;69.70;;;;;;5055851;28;20029;-64
2023/11/07 12:11:00;;;;;;;1.98;0.73;;;14.20;70.20;;;;;;5058526;28;20037;-64
2023/11/07 12:13:31;;;;;;;1.38;0.88;;;14.30;70.30;;;;;;5058173;28;20126;-64
2023/11/07 12:16:10;;;;;;;0.73;0.63;;;14.30;70.20;;;;;;5058893;28;20028;-64
2023/11/07 12:18:41;;;;;;;1.75;1.10;;;14.30;70.70;;;;;;5058217;28;20024;-64
2023/11/07 12:21:07;;;;;;;1.92;0.70;;;14.80;70.10;;;;;;5055974;28;20131;-64
2023/11/07 12:23:32;;;;;;;3.67;1.00;;;15.10;68.90;;;;;;5058090;28;20036;-64
2023/11/07 12:25:58;;;;;;;0.82;0.70;;;15.20;68.60;;;;;;5060966;28;20033;-64
2023/11/07 12:28:24;;;;;;;1.80;1.02;;;16.30;67.70;;;;;;5061592;28;20033;-65
2023/11/07 12:30:56;;;;;;;1.38;1.17;;;17.90;63.00;;;;;;5056690;28;20167;-65
2023/11/07 12:33:21;;;;;;;;;;;18.20;59.20;;;;;;5042807;28;20024;-65
2023/11/07 12:35:55;;;;;;;1.75;0.80;;;17.80;59.60;;;;;;5039622;28;19923;-65
2023/11/07 12:38:22;;;;;;;1.35;0.95;;;17.40;61.20;;;;;;5051918;28;20033;-65
2023/11/07 12:40:48;;;;;;;0.70;0.70;;;17.20;62.40;;;;;;5060141;28;20127;-65
2023/11/07 12:43:15;;;;;;;1.58;1.05;;;16.70;62.90;;;;;;5054934;28;20032;-65
2023/11/07 12:45:46;;;;;;;1.80;0.70;;;16.20;63.80;;;;;;5043934;28;20468;-65
2023/11/07 12:48:14;;;;;;;1.17;0.90;;;15.80;64.50;;;;;;5056254;28;20025;-65
2023/11/07 12:50:46;;;;;;;0.68;0.68;;;15.50;65.80;;;;;;5055153;28;20033;-65